Georg Jacob — A8XG5 — position and weather

sailwx.info

Track history (hours):
 
Tides and Currents Weather Stations Pressure Air Temp Water Temp Dewpoint Dewpoint Depression Visibility Wind Speed Wind Dir Waves Ship Positions

Georg Jacob

Last reported at 2016-Aug-05 13:33 UTC. Time now 2016-Aug-30 17:05 UTC.
Position N 01°53' E 102°25'.
Warning: this ship's position is 25 days out of date.

Length 229 m; draft 8.5 m.

Type: Tanker. MMSI: 636092136.

Date/timePositionNaut miles runAvg speedWind from/ knotsBaromVisibWave heightAir tempDewpointWater temp
2016-Aug-05 13:33N 01°53' E 102°25'1211.6
2016-Aug-05 12:33N 01°48' E 102°35'7512.5
2016-Aug-05 06:33N 01°11' E 103°40'18 9.1
2016-Aug-05 04:33N 01°15' E 103°58'3 3.0
2016-Aug-05 03:31N 01°18' E 103°60'0 0.0
2016-Aug-05 02:22N 01°18' E 103°60'0 0.1
2016-Aug-05 01:31N 01°18' E 103°60'0 0.1
2016-Aug-05 00:31N 01°18' E 103°60'0 0.0
2016-Aug-04 23:19N 01°18' E 103°60'0 0.0
2016-Aug-04 22:22N 01°18' E 103°60'0 0.1
2016-Aug-04 21:33N 01°18' E 103°60'0 0.1
2016-Aug-04 20:33N 01°18' E 103°60'0 0.0
2016-Aug-04 19:32N 01°18' E 103°60'0 0.0
2016-Aug-04 18:33N 01°18' E 103°60'0 0.1
2016-Aug-04 17:34N 01°18' E 103°60'0 0.1
2016-Aug-04 16:33N 01°18' E 103°60'0 0.1
2016-Aug-04 15:34N 01°18' E 103°60'0 0.1
2016-Aug-04 14:34N 01°18' E 103°60'0 0.1
2016-Aug-04 13:34N 01°18' E 103°60'2 1.7
2016-Aug-04 12:33N 01°16' E 103°59'4 4.2
2016-Aug-04 11:34N 01°16' E 104°03'3 2.6
2016-Aug-04 10:17N 01°19' E 104°06'2 3.0
2016-Aug-04 09:34N 01°20' E 104°04'9 9.2
2016-Aug-04 08:33N 01°25' E 103°56'5 4.3
2016-Aug-04 07:30N 01°27' E 103°52'  
Track history (hours):
 
Tides and Currents Weather Stations Pressure Air Temp Water Temp Dewpoint Dewpoint Depression Visibility Wind Speed Wind Dir Waves Ship Positions

Georg Jacob

Last reported at 2016-Aug-05 13:33 UTC. Time now 2016-Aug-30 17:05 UTC.
Position N 01°53' E 102°25'.
Warning: this ship's position is 25 days out of date.

Length 229 m; draft 8.5 m.

Type: Tanker. MMSI: 636092136.

Date/timePositionNaut miles runAvg speedWind from/ knotsBaromVisibWave heightAir tempDewpointWater temp
2016-Aug-05 13:33N 01°53' E 102°25'1211.6
2016-Aug-05 12:33N 01°48' E 102°35'7512.5
2016-Aug-05 06:33N 01°11' E 103°40'18 9.1
2016-Aug-05 04:33N 01°15' E 103°58'3 3.0
2016-Aug-05 03:31N 01°18' E 103°60'0 0.0
2016-Aug-05 02:22N 01°18' E 103°60'0 0.1
2016-Aug-05 01:31N 01°18' E 103°60'0 0.1
2016-Aug-05 00:31N 01°18' E 103°60'0 0.0
2016-Aug-04 23:19N 01°18' E 103°60'0 0.0
2016-Aug-04 22:22N 01°18' E 103°60'0 0.1
2016-Aug-04 21:33N 01°18' E 103°60'0 0.1
2016-Aug-04 20:33N 01°18' E 103°60'0 0.0
2016-Aug-04 19:32N 01°18' E 103°60'0 0.0
2016-Aug-04 18:33N 01°18' E 103°60'0 0.1
2016-Aug-04 17:34N 01°18' E 103°60'0 0.1
2016-Aug-04 16:33N 01°18' E 103°60'0 0.1
2016-Aug-04 15:34N 01°18' E 103°60'0 0.1
2016-Aug-04 14:34N 01°18' E 103°60'0 0.1
2016-Aug-04 13:34N 01°18' E 103°60'2 1.7
2016-Aug-04 12:33N 01°16' E 103°59'4 4.2
2016-Aug-04 11:34N 01°16' E 104°03'3 2.6
2016-Aug-04 10:17N 01°19' E 104°06'2 3.0
2016-Aug-04 09:34N 01°20' E 104°04'9 9.2
2016-Aug-04 08:33N 01°25' E 103°56'5 4.3
2016-Aug-04 07:30N 01°27' E 103°52'  

Dump ship's entire track history